createdAt,value
2019-04-10T00:00:47.674Z,19.87
2019-04-10T00:03:25.716Z,19.20
2019-04-10T00:05:46.171Z,19.35
2019-04-10T00:08:14.481Z,23.60
2019-04-10T00:10:43.729Z,20.10
2019-04-10T00:13:12.190Z,20.43
2019-04-10T00:15:40.367Z,20.72
2019-04-10T00:18:09.457Z,21.70
2019-04-10T00:20:37.647Z,18.62
2019-04-10T00:23:06.792Z,19.02
2019-04-10T00:25:35.345Z,21.25
2019-04-10T00:28:03.578Z,21.65
2019-04-10T00:30:31.779Z,21.85
2019-04-10T00:33:00.564Z,23.30
2019-04-10T00:35:29.735Z,19.87
2019-04-10T00:37:58.121Z,21.07
2019-04-10T00:40:26.400Z,17.50
2019-04-10T00:42:56.983Z,18.62
2019-04-10T00:45:25.106Z,20.37
2019-04-10T00:47:53.462Z,20.15
2019-04-10T00:50:22.329Z,20.30
2019-04-10T00:52:50.624Z,22.10
2019-04-10T00:55:19.666Z,22.65
2019-04-10T00:57:47.992Z,20.92
2019-04-10T01:00:16.941Z,22.50
2019-04-10T01:02:45.185Z,20.62
2019-04-10T01:05:13.479Z,20.17
2019-04-10T01:07:44.191Z,21.37
2019-04-10T01:10:12.222Z,17.30
2019-04-10T01:12:40.547Z,19.80
2019-04-10T01:15:10.026Z,21.50
2019-04-10T01:17:38.312Z,19.02
2019-04-10T01:20:07.157Z,19.15
2019-04-10T01:22:35.582Z,19.98
2019-04-10T01:25:06.083Z,20.82
2019-04-10T01:27:34.331Z,19.55
2019-04-10T01:30:02.556Z,19.42
2019-04-10T01:32:30.759Z,22.95
2019-04-10T01:35:00.147Z,23.50
2019-04-10T01:37:29.051Z,22.00
2019-04-10T01:39:57.387Z,19.32
2019-04-10T01:42:25.593Z,18.17
2019-04-10T01:44:53.817Z,19.30
2019-04-10T01:47:22.070Z,19.77
2019-04-10T01:49:50.358Z,21.33
2019-04-10T01:52:18.568Z,26.35
2019-04-10T01:54:47.140Z,28.07
2019-04-10T01:57:16.423Z,19.42
2019-04-10T01:59:45.898Z,19.35
2019-04-10T02:02:16.867Z,20.65
2019-04-10T02:04:45.251Z,18.37
2019-04-10T02:07:13.901Z,20.00
2019-04-10T02:09:42.159Z,20.97
2019-04-10T02:12:10.421Z,21.17
2019-04-10T02:14:38.669Z,16.90
2019-04-10T02:17:06.826Z,17.67
2019-04-10T02:19:35.063Z,18.85
2019-04-10T02:22:04.337Z,18.40
2019-04-10T02:24:33.389Z,20.23
2019-04-10T02:27:02.406Z,18.85
2019-04-10T02:29:31.497Z,20.17
2019-04-10T02:31:59.912Z,17.95
2019-04-10T02:34:28.417Z,17.55
2019-04-10T02:36:58.484Z,15.32
2019-04-10T02:39:34.195Z,20.57
2019-04-10T02:41:58.253Z,18.98
2019-04-10T02:44:28.406Z,20.12
2019-04-10T02:46:59.092Z,17.20
2019-04-10T02:49:28.010Z,19.40
2019-04-10T02:51:57.031Z,23.05
2019-04-10T02:54:26.926Z,21.07
2019-04-10T02:56:56.769Z,20.05
2019-04-10T02:59:25.148Z,18.95
2019-04-10T03:01:53.508Z,18.15
2019-04-10T03:04:21.664Z,18.60
2019-04-10T03:06:51.394Z,19.27
2019-04-10T03:09:40.541Z,20.32
2019-04-10T03:11:49.923Z,16.20
2019-04-10T03:14:18.958Z,19.92
2019-04-10T03:16:47.929Z,18.62
2019-04-10T03:19:17.055Z,19.98
2019-04-10T03:21:45.292Z,20.55
2019-04-10T03:24:13.894Z,19.42
2019-04-10T03:26:42.126Z,16.82
2019-04-10T03:29:10.355Z,19.98
2019-04-10T03:31:40.844Z,17.55
2019-04-10T03:34:21.799Z,18.23
2019-04-10T03:36:48.894Z,14.75
2019-04-10T03:39:17.463Z,16.85
2019-04-10T03:41:45.713Z,18.23
2019-04-10T03:44:14.540Z,16.95
2019-04-10T03:46:43.032Z,17.35
2019-04-10T03:49:11.767Z,18.07
2019-04-10T03:51:40.840Z,20.92
2019-04-10T03:54:09.183Z,18.07
2019-04-10T03:56:38.150Z,17.45
2019-04-10T03:59:06.485Z,17.62
2019-04-10T04:01:35.362Z,18.37
2019-04-10T04:04:04.880Z,16.10
2019-04-10T04:06:33.396Z,17.45
2019-04-10T04:09:08.879Z,17.65
2019-04-10T04:11:31.640Z,14.53
2019-04-10T04:13:59.874Z,15.28
2019-04-10T04:16:28.040Z,14.93
2019-04-10T04:18:56.246Z,19.73
2019-04-10T04:21:24.465Z,15.90
2019-04-10T04:23:53.259Z,21.45
2019-04-10T04:26:21.500Z,24.00
2019-04-10T04:28:49.706Z,15.78
2019-04-10T04:31:18.150Z,16.48
2019-04-10T04:33:46.924Z,18.10
2019-04-10T04:36:16.003Z,19.32
2019-04-10T04:38:45.224Z,18.42
2019-04-10T04:41:13.538Z,18.73
2019-04-10T04:43:43.398Z,17.60
2019-04-10T04:46:12.060Z,18.80
2019-04-10T04:48:41.208Z,18.95
2019-04-10T04:51:09.500Z,20.15
2019-04-10T04:53:37.705Z,16.77
2019-04-10T04:56:05.929Z,20.08
2019-04-10T04:58:34.173Z,19.95
2019-04-10T05:01:02.361Z,16.57
2019-04-10T05:03:30.577Z,21.25
2019-04-10T05:05:58.799Z,21.62
2019-04-10T05:08:28.048Z,25.45
2019-04-10T05:10:56.313Z,18.85
2019-04-10T05:13:24.513Z,17.05
2019-04-10T05:15:53.369Z,19.15
2019-04-10T05:18:22.980Z,20.97
2019-04-10T05:20:52.406Z,23.27
2019-04-10T05:23:20.828Z,19.30
2019-04-10T05:25:49.795Z,19.85
2019-04-10T05:28:18.997Z,18.45
2019-04-10T05:30:47.652Z,18.60
2019-04-10T05:33:16.249Z,17.87
2019-04-10T05:35:44.449Z,19.05
2019-04-10T05:38:13.525Z,18.67
2019-04-10T05:40:42.227Z,18.55
2019-04-10T05:43:11.471Z,19.92
2019-04-10T05:45:40.125Z,18.70
2019-04-10T05:48:08.812Z,24.10
2019-04-10T05:50:37.816Z,21.62
2019-04-10T05:53:06.147Z,16.73
2019-04-10T05:55:34.355Z,21.95
2019-04-10T05:58:02.576Z,24.40
2019-04-10T06:00:30.791Z,20.15
2019-04-10T06:02:59.019Z,21.40
2019-04-10T06:05:27.224Z,19.35
2019-04-10T06:07:55.486Z,18.15
2019-04-10T06:10:24.654Z,21.10
2019-04-10T06:12:53.105Z,25.15
2019-04-10T06:15:21.322Z,18.87
2019-04-10T06:17:49.553Z,19.57
2019-04-10T06:20:17.756Z,22.32
2019-04-10T06:22:47.227Z,17.70
2019-04-10T06:25:16.378Z,18.70
2019-04-10T06:27:45.280Z,22.27
2019-04-10T06:30:13.492Z,21.23
2019-04-10T06:32:41.716Z,18.10
2019-04-10T06:35:11.023Z,23.67
2019-04-10T06:37:40.088Z,18.75
2019-04-10T06:40:17.066Z,18.00
2019-04-10T06:42:46.109Z,20.68
2019-04-10T06:45:09.291Z,20.48
2019-04-10T06:47:38.225Z,20.80
2019-04-10T06:50:07.030Z,19.25
2019-04-10T06:52:35.259Z,18.07
2019-04-10T06:55:05.034Z,17.77
2019-04-10T06:57:45.103Z,21.15
2019-04-10T07:00:06.767Z,18.05
2019-04-10T07:02:37.131Z,20.23
2019-04-10T07:05:17.475Z,17.00
2019-04-10T07:07:51.915Z,19.57
2019-04-10T07:10:26.084Z,19.02
2019-04-10T07:12:45.787Z,20.62
2019-04-10T07:15:18.511Z,22.50
2019-04-10T07:17:44.834Z,19.32
2019-04-10T07:20:15.473Z,20.85
2019-04-10T07:22:46.539Z,20.08
2019-04-10T07:25:14.384Z,19.65
2019-04-10T07:27:44.053Z,19.27
2019-04-10T07:30:12.347Z,21.65
2019-04-10T07:32:44.256Z,16.62
2019-04-10T07:35:12.757Z,19.02
2019-04-10T07:37:40.503Z,15.65
2019-04-10T07:40:08.894Z,18.70
2019-04-10T07:42:40.276Z,17.90
2019-04-10T07:45:07.047Z,17.82
2019-04-10T07:47:35.619Z,22.87
2019-04-10T07:50:08.591Z,17.45
2019-04-10T07:52:37.169Z,18.10
2019-04-10T07:55:06.608Z,21.23
2019-04-10T07:57:34.919Z,16.97
2019-04-10T08:00:03.262Z,15.65
2019-04-10T08:02:31.737Z,18.35
2019-04-10T08:05:00.185Z,19.62
2019-04-10T08:07:32.596Z,18.32
2019-04-10T08:09:59.290Z,21.15
2019-04-10T08:12:37.618Z,23.18
2019-04-10T08:14:57.540Z,25.65
2019-04-10T08:17:26.269Z,18.55
2019-04-10T08:19:54.508Z,16.15
2019-04-10T08:22:22.786Z,16.70
2019-04-10T08:24:51.246Z,18.23
2019-04-10T08:27:19.558Z,21.23
2019-04-10T08:29:48.481Z,16.75
2019-04-10T08:32:16.754Z,17.15
2019-04-10T08:34:45.008Z,20.62
2019-04-10T08:37:14.422Z,16.87
2019-04-10T08:39:45.967Z,22.80
2019-04-10T08:42:12.777Z,15.05
2019-04-10T08:44:41.008Z,18.30
2019-04-10T08:47:09.235Z,25.32
2019-04-10T08:49:37.448Z,20.10
2019-04-10T08:52:06.172Z,21.27
2019-04-10T08:54:34.576Z,21.27
2019-04-10T08:57:03.311Z,18.50
2019-04-10T08:59:31.923Z,24.18
2019-04-10T09:02:00.199Z,19.45
2019-04-10T09:04:28.761Z,20.27
2019-04-10T09:06:57.955Z,16.65
2019-04-10T09:09:27.866Z,19.37
2019-04-10T09:11:56.264Z,15.32
2019-04-10T09:14:25.230Z,20.82
2019-04-10T09:16:55.208Z,20.00
2019-04-10T09:19:23.484Z,16.30
2019-04-10T09:21:52.875Z,16.82
2019-04-10T09:24:21.680Z,20.37
2019-04-10T09:26:50.817Z,15.35
2019-04-10T09:29:21.774Z,16.77
2019-04-10T09:31:50.241Z,18.95
2019-04-10T09:34:18.578Z,19.23
2019-04-10T09:36:46.802Z,16.07
2019-04-10T09:39:15.081Z,18.85
2019-04-10T09:41:43.923Z,21.57
2019-04-10T09:44:12.398Z,16.45
2019-04-10T09:46:40.883Z,20.20
2019-04-10T09:49:09.176Z,19.62
2019-04-10T09:51:38.296Z,20.55
2019-04-10T09:54:07.785Z,18.85
2019-04-10T09:56:36.415Z,19.17
2019-04-10T09:59:05.378Z,20.65
2019-04-10T10:01:33.863Z,23.15
2019-04-10T10:04:02.007Z,20.00
2019-04-10T10:06:34.701Z,21.75
2019-04-10T10:09:00.537Z,17.62
2019-04-10T10:11:28.755Z,18.87
2019-04-10T10:13:56.964Z,20.35
2019-04-10T10:16:25.506Z,21.23
2019-04-10T10:18:54.070Z,17.17
2019-04-10T10:21:22.405Z,20.70
2019-04-10T10:23:50.625Z,18.45
2019-04-10T10:26:19.705Z,17.15
2019-04-10T10:28:48.171Z,24.55
2019-04-10T10:31:16.320Z,18.85
2019-04-10T10:33:44.536Z,16.97
2019-04-10T10:36:13.705Z,19.10
2019-04-10T10:38:41.979Z,21.10
2019-04-10T10:41:10.185Z,18.52
2019-04-10T10:43:38.433Z,17.82
2019-04-10T10:46:07.153Z,17.87
2019-04-10T10:48:35.809Z,15.83
2019-04-10T10:51:04.623Z,23.80
2019-04-10T10:53:32.950Z,19.23
2019-04-10T10:56:02.157Z,15.80
2019-04-10T10:58:30.469Z,17.55
2019-04-10T11:00:59.761Z,18.17
2019-04-10T11:03:28.146Z,20.70
2019-04-10T11:06:57.789Z,18.05
2019-04-10T11:08:33.867Z,16.05
2019-04-10T11:11:06.261Z,15.60
2019-04-10T11:13:34.785Z,17.82
2019-04-10T11:16:07.103Z,14.25
2019-04-10T11:18:35.246Z,15.28
2019-04-10T11:21:08.045Z,14.73
2019-04-10T11:23:33.841Z,18.60
2019-04-10T11:26:02.311Z,12.80
2019-04-10T11:28:32.254Z,15.35
2019-04-10T11:31:01.402Z,14.47
2019-04-10T11:33:30.747Z,14.98
2019-04-10T11:36:00.139Z,17.20
2019-04-10T11:38:29.075Z,14.68
2019-04-10T11:43:27.889Z,15.83
2019-04-10T11:45:59.287Z,15.10
2019-04-10T11:48:29.098Z,14.85
2019-04-10T11:51:00.684Z,16.50
2019-04-10T11:53:27.362Z,14.70
2019-04-10T11:55:57.033Z,16.07
2019-04-10T11:58:28.956Z,16.95
2019-04-10T12:00:58.080Z,18.48
2019-04-10T12:03:27.002Z,15.95
2019-04-10T12:05:57.208Z,16.80
2019-04-10T12:13:26.624Z,15.25
2019-04-10T12:15:54.877Z,14.63
2019-04-10T12:18:23.079Z,25.00
2019-04-10T12:20:51.581Z,17.85
2019-04-10T12:23:20.872Z,17.80
2019-04-10T12:25:49.430Z,24.12
2019-04-10T12:28:17.966Z,23.75
2019-04-10T12:30:46.250Z,22.37
2019-04-10T12:33:14.454Z,20.50
2019-04-10T12:35:42.761Z,16.45
2019-04-10T12:38:13.249Z,14.95
2019-04-10T12:40:40.918Z,15.78
2019-04-10T12:43:09.135Z,17.17
2019-04-10T12:45:38.158Z,14.60
2019-04-10T12:48:06.390Z,16.52
2019-04-10T12:50:34.647Z,13.58
2019-04-10T12:53:03.035Z,18.12
2019-04-10T12:55:32.322Z,17.70
2019-04-10T12:58:08.419Z,15.32
2019-04-10T13:00:31.641Z,16.00
2019-04-10T13:03:00.810Z,16.20
2019-04-10T13:05:29.345Z,14.80
2019-04-10T13:07:59.165Z,13.80
2019-04-10T13:10:27.566Z,19.57
2019-04-10T13:12:55.779Z,16.50
2019-04-10T13:15:23.995Z,15.18
2019-04-10T13:17:53.148Z,16.73
2019-04-10T13:20:21.904Z,16.35
2019-04-10T13:22:50.671Z,17.42
2019-04-10T13:25:19.007Z,18.50
2019-04-10T13:27:47.371Z,18.00
2019-04-10T13:30:16.556Z,17.48
2019-04-10T13:32:44.964Z,14.78
2019-04-10T13:35:14.407Z,14.23
2019-04-10T13:37:43.482Z,18.17
2019-04-10T13:40:13.087Z,15.20
2019-04-10T13:42:41.409Z,14.75
2019-04-10T13:45:09.621Z,17.05
2019-04-10T13:47:38.681Z,17.42
2019-04-10T13:50:08.496Z,20.23
2019-04-10T13:52:38.708Z,17.32
2019-04-10T13:55:10.227Z,19.30
2019-04-10T13:57:39.284Z,17.98
2019-04-10T14:00:09.377Z,16.15
2019-04-10T14:02:37.998Z,15.15
2019-04-10T14:05:11.609Z,14.87
2019-04-10T14:07:40.229Z,17.05
2019-04-10T14:10:08.588Z,15.75
2019-04-10T14:12:37.185Z,14.63
2019-04-10T14:15:05.574Z,14.60
2019-04-10T14:17:33.830Z,18.80
2019-04-10T14:20:02.880Z,16.60
2019-04-10T14:22:31.613Z,18.40
2019-04-10T14:25:00.937Z,15.75
2019-04-10T14:27:30.264Z,15.28
2019-04-10T14:29:58.764Z,13.22
2019-04-10T14:32:37.608Z,14.13
2019-04-10T14:35:08.645Z,13.80
2019-04-10T14:37:37.959Z,11.80
2019-04-10T14:40:08.403Z,18.60
2019-04-10T14:42:36.659Z,14.45
2019-04-10T14:45:06.740Z,12.20
2019-04-10T14:47:35.976Z,12.20
2019-04-10T14:50:05.291Z,12.43
2019-04-10T14:52:34.846Z,14.63
2019-04-10T14:55:04.567Z,12.63
2019-04-10T14:57:32.978Z,13.60
2019-04-10T15:00:01.205Z,18.90
2019-04-10T15:02:30.577Z,20.62
2019-04-10T15:04:59.545Z,13.13
2019-04-10T15:07:28.885Z,16.82
2019-04-10T15:09:57.197Z,17.12
2019-04-10T15:12:25.481Z,15.30
2019-04-10T15:14:58.270Z,14.47
2019-04-10T15:17:27.178Z,14.95
2019-04-10T15:19:56.521Z,15.32
2019-04-10T15:22:25.501Z,14.65
2019-04-10T15:24:53.969Z,15.60
2019-04-10T15:27:22.194Z,13.70
2019-04-10T15:29:50.582Z,12.60
2019-04-10T15:32:20.418Z,12.45
2019-04-10T15:34:48.676Z,14.75
2019-04-10T15:37:17.211Z,12.80
2019-04-10T15:39:47.179Z,14.55
2019-04-10T15:42:24.891Z,13.38
2019-04-10T15:44:57.091Z,12.15
2019-04-10T15:47:25.295Z,14.73
2019-04-10T15:49:53.606Z,13.85
2019-04-10T15:52:24.917Z,11.20
2019-04-10T15:54:55.458Z,16.12
2019-04-10T15:57:25.498Z,12.55
2019-04-10T15:59:54.623Z,14.47
2019-04-10T16:02:23.723Z,11.68
2019-04-10T16:04:57.181Z,13.80
2019-04-10T16:07:27.323Z,12.47
2019-04-10T16:09:57.974Z,14.80
2019-04-10T16:12:27.433Z,15.18
2019-04-10T16:14:56.972Z,14.10
2019-04-10T16:17:39.922Z,12.93
2019-04-10T16:20:22.100Z,11.50
2019-04-10T16:22:54.809Z,13.55
2019-04-10T16:25:25.579Z,11.25
2019-04-10T16:27:53.965Z,14.73
2019-04-10T16:30:26.249Z,11.97
2019-04-10T16:32:54.374Z,11.90
2019-04-10T16:35:32.482Z,10.48
2019-04-10T16:38:00.199Z,11.90
2019-04-10T16:40:29.836Z,11.28
2019-04-10T16:42:59.246Z,10.75
2019-04-10T16:45:28.643Z,11.90
2019-04-10T16:47:56.874Z,13.10
2019-04-10T16:50:25.842Z,11.70
2019-04-10T16:52:54.069Z,11.90
2019-04-10T16:55:22.784Z,13.55
2019-04-10T16:57:52.203Z,11.80
2019-04-10T17:00:22.249Z,16.42
2019-04-10T17:02:50.815Z,11.90
2019-04-10T17:05:19.029Z,11.05
2019-04-10T17:07:47.527Z,9.03
2019-04-10T17:10:22.346Z,12.45
2019-04-10T17:12:46.849Z,10.68
2019-04-10T17:15:15.722Z,11.70
2019-04-10T17:17:44.445Z,10.63
2019-04-10T17:20:14.014Z,10.38
2019-04-10T17:22:45.988Z,19.45
2019-04-10T17:25:14.347Z,10.82
2019-04-10T17:27:43.564Z,10.70
2019-04-10T17:30:15.706Z,11.43
2019-04-10T17:32:44.665Z,12.10
2019-04-10T17:35:13.688Z,10.18
2019-04-10T17:37:42.250Z,10.88
2019-04-10T17:40:25.448Z,10.30
2019-04-10T17:42:42.265Z,9.70
2019-04-10T17:45:10.470Z,10.15
2019-04-10T17:47:38.920Z,9.35
2019-04-10T17:50:08.778Z,10.75
2019-04-10T17:52:38.110Z,11.48
2019-04-10T17:55:07.407Z,12.23
2019-04-10T17:57:40.211Z,10.38
2019-04-10T18:00:11.077Z,8.93
2019-04-10T18:02:39.322Z,8.73
2019-04-10T18:05:08.513Z,8.20
2019-04-10T18:07:40.547Z,8.65
2019-04-10T18:10:09.004Z,12.25
2019-04-10T18:12:38.373Z,11.03
2019-04-10T18:15:06.640Z,11.53
2019-04-10T18:17:35.416Z,12.15
2019-04-10T18:20:04.890Z,11.12
2019-04-10T18:22:34.330Z,15.15
2019-04-10T18:25:05.450Z,11.35
2019-04-10T18:27:33.733Z,10.20
2019-04-10T18:30:01.962Z,14.83
2019-04-10T18:32:30.172Z,10.30
2019-04-10T18:34:58.392Z,10.40
2019-04-10T18:37:28.579Z,10.93
2019-04-10T18:39:57.033Z,11.83
2019-04-10T18:42:25.331Z,8.18
2019-04-10T18:44:53.558Z,10.75
2019-04-10T18:47:21.871Z,12.10
2019-04-10T18:49:53.982Z,13.28
2019-04-10T18:52:23.361Z,9.90
2019-04-10T18:54:52.019Z,10.38
2019-04-10T18:57:20.344Z,11.55
2019-04-10T19:00:02.082Z,11.48
2019-04-10T19:02:32.829Z,9.83
2019-04-10T19:05:05.697Z,11.48
2019-04-10T19:07:34.345Z,11.00
2019-04-10T19:10:04.309Z,10.55
2019-04-10T19:12:32.827Z,11.25
2019-04-10T19:15:01.069Z,10.60
2019-04-10T19:17:29.365Z,10.60
2019-04-10T19:19:57.579Z,11.35
2019-04-10T19:22:26.730Z,9.43
2019-04-10T19:24:54.928Z,10.60
2019-04-10T19:27:25.052Z,9.85
2019-04-10T19:29:53.048Z,11.88
2019-04-10T19:32:22.922Z,10.72
2019-04-10T19:34:51.803Z,8.28
2019-04-10T19:37:20.642Z,9.05
2019-04-10T19:39:48.850Z,11.93
2019-04-10T19:42:17.437Z,10.45
2019-04-10T19:44:45.677Z,10.40
2019-04-10T19:47:14.550Z,11.35
2019-04-10T19:49:42.895Z,11.80
2019-04-10T19:52:11.979Z,8.53
2019-04-10T19:54:40.882Z,9.88
2019-04-10T19:57:09.063Z,8.13
2019-04-10T19:59:37.287Z,10.68
2019-04-10T20:02:06.649Z,11.53
2019-04-10T20:04:34.958Z,11.25
2019-04-10T20:07:03.161Z,9.35
2019-04-10T20:09:32.569Z,12.20
2019-04-10T20:12:00.957Z,13.40
2019-04-10T20:14:29.150Z,9.50
2019-04-10T20:16:57.657Z,15.25
2019-04-10T20:19:26.637Z,9.53
2019-04-10T20:21:54.855Z,9.58
2019-04-10T20:24:23.060Z,12.78
2019-04-10T20:26:51.813Z,10.93
2019-04-10T20:29:21.154Z,8.98
2019-04-10T20:31:50.640Z,9.18
2019-04-10T20:34:19.133Z,9.10
2019-04-10T20:36:47.437Z,8.73
2019-04-10T20:39:16.876Z,9.73
2019-04-10T20:41:52.001Z,11.83
2019-04-10T20:44:15.166Z,10.72
2019-04-10T20:46:46.637Z,11.22
2019-04-10T20:49:14.771Z,12.05
2019-04-10T20:51:43.938Z,11.28
2019-04-10T20:54:12.771Z,8.48
2019-04-10T20:56:41.112Z,8.45
2019-04-10T20:59:09.962Z,11.90
2019-04-10T21:01:39.287Z,10.72
2019-04-10T21:04:07.577Z,9.70
2019-04-10T21:06:36.418Z,8.78
2019-04-10T21:09:07.501Z,7.80
2019-04-10T21:11:35.699Z,8.98
2019-04-10T21:14:05.230Z,10.60
2019-04-10T21:16:33.677Z,10.60
2019-04-10T21:19:02.372Z,10.23
2019-04-10T21:21:30.784Z,12.60
2019-04-10T21:23:58.949Z,9.33
2019-04-10T21:26:28.213Z,8.43
2019-04-10T21:28:56.760Z,10.55
2019-04-10T21:31:42.826Z,11.78
2019-04-10T21:34:21.865Z,13.40
2019-04-10T21:36:50.983Z,11.08
2019-04-10T21:39:22.887Z,8.68
2019-04-10T21:41:51.088Z,11.05
2019-04-10T21:44:20.391Z,11.00
2019-04-10T21:46:50.416Z,9.35
2019-04-10T21:49:19.639Z,11.30
2019-04-10T21:51:48.093Z,10.78
2019-04-10T21:54:16.371Z,8.80
2019-04-10T21:56:45.116Z,12.93
2019-04-10T21:59:16.021Z,12.00
2019-04-10T22:01:43.360Z,12.23
2019-04-10T22:04:11.642Z,7.40
2019-04-10T22:06:41.485Z,11.60
2019-04-10T22:09:28.594Z,12.28
2019-04-10T22:11:58.468Z,10.23
2019-04-10T22:14:26.636Z,9.75
2019-04-10T22:16:54.841Z,6.20
2019-04-10T22:19:24.446Z,9.20
2019-04-10T22:21:53.667Z,12.93
2019-04-10T22:24:21.954Z,11.25
2019-04-10T22:26:50.193Z,9.70
2019-04-10T22:29:19.503Z,11.10
2019-04-10T22:31:47.790Z,8.58
2019-04-10T22:34:17.071Z,9.30
2019-04-10T22:36:45.372Z,9.43
2019-04-10T22:39:15.226Z,9.35
2019-04-10T22:41:43.500Z,9.08
2019-04-10T22:44:11.830Z,10.05
2019-04-10T22:46:40.466Z,8.58
2019-04-10T22:49:08.685Z,8.98
2019-04-10T22:51:37.698Z,8.93
2019-04-10T22:54:06.119Z,11.93
2019-04-10T22:56:34.405Z,10.58
2019-04-10T22:59:03.855Z,9.18
2019-04-10T23:01:33.315Z,8.50
2019-04-10T23:04:01.774Z,8.10
2019-04-10T23:06:29.974Z,11.88
2019-04-10T23:08:58.171Z,9.15
2019-04-10T23:11:33.505Z,8.25
2019-04-10T23:13:56.420Z,9.75
2019-04-10T23:16:24.613Z,14.20
2019-04-10T23:18:53.864Z,8.90
2019-04-10T23:21:22.821Z,10.00
2019-04-10T23:23:51.632Z,7.78
2019-04-10T23:26:20.765Z,11.78
2019-04-10T23:28:49.792Z,9.10
2019-04-10T23:31:17.999Z,10.85
2019-04-10T23:33:46.208Z,9.50
2019-04-10T23:36:14.421Z,10.50
2019-04-10T23:38:43.709Z,10.53
2019-04-10T23:41:12.012Z,9.13
2019-04-10T23:43:40.203Z,9.63
2019-04-10T23:46:08.445Z,10.05
2019-04-10T23:48:37.107Z,9.88
2019-04-10T23:51:05.317Z,7.87
2019-04-10T23:53:33.531Z,13.75
2019-04-10T23:56:02.145Z,10.75
2019-04-10T23:58:30.430Z,7.75
